Time;durP1;ratioP1;P1;durP2;ratioP2;P2;SDS_P1;SDS_P2;PMS_P1;PMS_P2;Temp;Humidity;BMP_temperature;BMP_pressure;BME280_temperature;BME280_humidity;BME280_pressure;Samples;Min_cycle;Max_cycle;Signal;HPM_P1;HPM_P2
2024/01/08 00:00:56;;;;;;;9.02;5.45;;;;;;;-146.25;100.00;52625.72;2096615;28;37969;-64
2024/01/08 00:01:58;;;;;;;8.75;5.50;;;;;;;-146.25;100.00;52639.91;2096431;28;34211;-64
2024/01/08 00:03:00;;;;;;;8.95;5.20;;;;;;;-146.25;100.00;52694.66;2097372;28;20142;-64
2024/01/08 00:04:03;;;;;;;10.15;5.78;;;;;;;-146.25;100.00;52658.16;2097017;28;34270;-64
2024/01/08 00:05:07;;;;;;;10.55;5.50;;;;;;;-146.25;100.00;52718.97;2096997;28;32125;-64
2024/01/08 00:06:09;;;;;;;9.30;5.72;;;;;;;-146.25;100.00;52688.56;2096595;28;20048;-64
2024/01/08 00:07:10;;;;;;;8.25;4.82;;;;;;;-146.25;100.00;52680.47;2097401;28;20781;-64
2024/01/08 00:08:12;;;;;;;9.18;5.43;;;;;;;-146.25;100.00;52660.19;2096850;28;35392;-64
2024/01/08 00:09:14;;;;;;;8.60;4.90;;;;;;;-146.25;100.00;52682.47;2097648;28;20041;-64
2024/01/08 00:10:16;;;;;;;11.10;5.53;;;;;;;-146.25;100.00;52623.69;2097300;28;25713;-64
2024/01/08 00:11:17;;;;;;;10.18;6.13;;;;;;;-146.25;100.00;52672.34;2097159;28;32482;-64
2024/01/08 00:12:21;;;;;;;8.60;5.47;;;;;;;-146.25;100.00;52662.22;2097317;28;20890;-64
2024/01/08 00:13:23;;;;;;;8.68;5.22;;;;;;;-146.25;100.00;52656.13;2096566;28;38402;-64
2024/01/08 00:14:25;;;;;;;10.00;5.50;;;;;;;-146.25;100.00;52676.41;2096808;28;33929;-64
2024/01/08 00:15:29;;;;;;;9.50;5.78;;;;;;;-146.25;100.00;52672.34;2096798;28;36001;-64
2024/01/08 00:16:31;;;;;;;10.35;5.25;;;;;;;-146.25;100.00;52631.78;2096850;28;38131;-63
2024/01/08 00:17:35;;;;;;;10.05;5.65;;;;;;;-146.25;100.00;52676.41;2096536;28;38087;-64
2024/01/08 00:18:37;;;;;;;9.75;5.25;;;;;;;-146.25;100.00;52684.50;2096515;28;37204;-63
2024/01/08 00:19:39;;;;;;;8.52;5.55;;;;;;;-146.25;100.00;52660.19;2094028;28;20037;-64
2024/01/08 00:20:42;;;;;;;9.55;5.43;;;;;;;-146.25;100.00;52648.00;2101244;28;36716;-64
2024/01/08 00:21:46;;;;;;;9.45;5.50;;;;;;;-146.25;100.00;52676.41;2096782;28;32111;-65
2024/01/08 00:22:47;;;;;;;9.10;5.60;;;;;;;-146.25;100.00;52668.28;2091853;28;33872;-63
2024/01/08 00:23:51;;;;;;;11.45;5.82;;;;;;;-146.25;100.00;52639.91;2088430;28;32666;-63
2024/01/08 00:24:56;;;;;;;9.02;5.47;;;;;;;-146.25;100.00;52676.41;2094803;28;20052;-64
2024/01/08 00:26:00;;;;;;;8.13;5.55;;;;;;;-146.25;100.00;52648.00;2095510;28;37657;-65
2024/01/08 00:27:03;;;;;;;12.43;5.63;;;;;;;-146.25;100.00;52666.25;2096808;28;34480;-64
2024/01/08 00:28:05;;;;;;;8.70;5.80;;;;;;;-146.25;100.00;52700.72;2096182;28;31667;-65
2024/01/08 00:29:06;;;;;;;9.13;5.40;;;;;;;-146.25;100.00;52656.13;2096775;28;32623;-64
2024/01/08 00:30:09;;;;;;;11.65;6.43;;;;;;;-146.25;100.00;52637.88;2096892;28;33239;-64
2024/01/08 00:31:13;;;;;;;11.80;5.78;;;;;;;-146.25;100.00;52674.38;2096806;28;32776;-64
2024/01/08 00:32:17;;;;;;;9.15;5.60;;;;;;;-146.25;100.00;52686.53;2096121;28;37812;-64
2024/01/08 00:33:19;;;;;;;10.57;6.18;;;;;;;-146.25;100.00;52672.34;2097263;28;20033;-64
2024/01/08 00:34:21;;;;;;;10.63;5.57;;;;;;;-146.25;100.00;52643.97;2096696;28;36701;-64
2024/01/08 00:35:23;;;;;;;9.32;5.63;;;;;;;-146.25;100.00;52690.59;2096489;28;33857;-65
2024/01/08 00:36:25;;;;;;;9.30;5.47;;;;;;;-146.25;100.00;52654.09;2096926;28;33836;-64
2024/01/08 00:37:26;;;;;;;9.40;5.75;;;;;;;-146.25;100.00;52648.00;2096493;28;38402;-64
2024/01/08 00:38:28;;;;;;;9.10;5.82;;;;;;;-146.25;100.00;52694.66;2097514;28;20026;-65
2024/01/08 00:39:30;;;;;;;8.27;5.13;;;;;;;-146.25;100.00;52674.38;2096595;28;37593;-64
2024/01/08 00:40:32;;;;;;;10.27;5.85;;;;;;;-146.25;100.00;52698.72;2096620;28;35302;-64
2024/01/08 00:41:33;;;;;;;9.75;5.65;;;;;;;-146.25;100.00;52656.13;2097131;28;33118;-64
2024/01/08 00:42:36;;;;;;;10.20;5.78;;;;;;;-146.25;100.00;52662.22;2096326;28;36249;-64
2024/01/08 00:43:38;;;;;;;12.90;5.50;;;;;;;-146.25;100.00;52666.25;2096728;28;33198;-66
2024/01/08 00:44:40;;;;;;;9.30;5.30;;;;;;;-146.25;100.00;52684.50;2095733;28;35550;-66
2024/01/08 00:45:42;;;;;;;10.38;6.53;;;;;;;-146.25;100.00;52641.94;2096453;28;35143;-65
2024/01/08 00:46:43;;;;;;;11.07;6.03;;;;;;;-146.25;100.00;52674.38;2096484;28;30857;-64
2024/01/08 00:47:45;;;;;;;10.20;5.65;;;;;;;-146.25;100.00;52652.06;2096531;28;33285;-64
2024/01/08 00:48:47;;;;;;;10.48;5.72;;;;;;;-146.25;100.00;52690.59;2096735;28;36057;-65
2024/01/08 00:49:49;;;;;;;11.20;5.68;;;;;;;-146.25;100.00;52670.31;2096249;28;34910;-66
2024/01/08 00:50:52;;;;;;;11.00;6.15;;;;;;;-146.25;100.00;52723.03;2096536;28;34355;-64
2024/01/08 00:51:54;;;;;;;9.95;5.28;;;;;;;-146.25;100.00;52629.75;2096485;28;35762;-64
2024/01/08 00:52:55;;;;;;;8.93;5.35;;;;;;;-146.25;100.00;52650.03;2096559;28;34090;-66
2024/01/08 00:53:57;;;;;;;8.60;5.30;;;;;;;-146.25;100.00;52676.41;2092806;28;34568;-66
2024/01/08 00:55:04;;;;;;;8.60;4.88;;;;;;;-146.25;100.00;52643.97;2092644;28;34612;-66
2024/01/08 00:56:06;;;;;;;9.30;5.57;;;;;;;-146.25;100.00;52672.34;2088052;28;35162;-66
2024/01/08 00:57:08;;;;;;;9.90;5.57;;;;;;;-146.25;100.00;52692.63;2088460;28;30085;-66
2024/01/08 00:58:10;;;;;;;10.55;5.50;;;;;;;-146.25;100.00;52652.06;2095901;28;35782;-66
2024/01/08 00:59:14;;;;;;;8.57;5.22;;;;;;;-146.25;100.00;52690.59;2097160;28;20040;-64
2024/01/08 01:00:19;;;;;;;9.50;5.40;;;;;;;-146.25;100.00;52674.38;2096789;28;20267;-65
2024/01/08 01:01:21;;;;;;;9.45;5.63;;;;;;;-146.25;100.00;52652.06;2096096;28;37745;-66
2024/01/08 01:02:23;;;;;;;7.57;4.93;;;;;;;-146.25;100.00;52635.84;2097033;28;20041;-66
2024/01/08 01:03:25;;;;;;;8.82;5.32;;;;;;;-146.25;100.00;52639.91;2090675;28;31756;-65
2024/01/08 01:04:27;;;;;;;9.43;5.20;;;;;;;-146.25;100.00;52674.38;2088195;28;36618;-66
2024/01/08 01:05:29;;;;;;;7.72;4.80;;;;;;;-146.25;100.00;52692.63;2088077;28;29638;-66
2024/01/08 01:06:31;;;;;;;11.50;5.63;;;;;;;-146.25;100.00;52658.16;2087636;28;36064;-65
2024/01/08 01:07:33;;;;;;;10.90;5.55;;;;;;;-146.25;100.00;52680.47;2088655;28;20049;-65
2024/01/08 01:08:36;;;;;;;9.05;5.25;;;;;;;-146.25;100.00;52686.53;2087994;28;36562;-65
2024/01/08 01:09:38;;;;;;;8.60;5.07;;;;;;;-146.25;100.00;52662.22;2087844;28;35983;-65
2024/01/08 01:10:39;;;;;;;10.32;5.22;;;;;;;-146.25;100.00;52702.75;2088173;28;30783;-66
2024/01/08 01:11:43;;;;;;;10.73;5.65;;;;;;;-146.25;100.00;52664.22;2087727;28;35612;-65
2024/01/08 01:12:47;;;;;;;10.00;5.30;;;;;;;-146.25;100.00;52684.50;2087625;28;35533;-66
2024/01/08 01:13:51;;;;;;;9.27;5.40;;;;;;;-146.25;100.00;52641.94;2089116;28;21812;-65
2024/01/08 01:14:52;;;;;;;8.00;5.00;;;;;;;-146.25;100.00;52668.28;2096041;28;37150;-65
2024/01/08 01:15:54;;;;;;;8.48;5.22;;;;;;;-146.25;100.00;52674.38;2096481;28;33247;-66
2024/01/08 01:16:56;;;;;;;8.27;4.72;;;;;;;-146.25;100.00;52678.44;2096154;28;31573;-66
2024/01/08 01:18:00;;;;;;;8.60;5.05;;;;;;;-146.25;100.00;52662.22;2096590;28;32085;-66
2024/01/08 01:19:05;;;;;;;9.20;5.38;;;;;;;-146.25;100.00;52648.00;2096295;28;35191;-66
2024/01/08 01:20:07;;;;;;;8.55;5.35;;;;;;;-146.25;100.00;52660.19;2096003;28;34497;-66
2024/01/08 01:21:10;;;;;;;10.95;5.05;;;;;;;-146.25;100.00;52670.31;2096520;28;33420;-65
2024/01/08 01:22:12;;;;;;;9.27;5.07;;;;;;;-146.25;100.00;52660.19;2096219;28;36004;-65
2024/01/08 01:23:15;;;;;;;7.05;4.68;;;;;;;-146.25;100.00;52666.25;2096979;28;21064;-65
2024/01/08 01:24:16;;;;;;;6.57;4.45;;;;;;;-146.25;100.00;52690.59;2090893;28;36002;-66
2024/01/08 01:25:18;;;;;;;10.23;4.80;;;;;;;-146.25;100.00;52662.22;2096284;28;32905;-65
2024/01/08 01:26:21;;;;;;;9.35;4.68;;;;;;;-146.25;100.00;52652.06;2081771;28;30862;-65
2024/01/08 01:27:23;;;;;;;8.55;4.65;;;;;;;-146.25;100.00;52650.03;2079219;28;37149;-66
2024/01/08 01:28:27;;;;;;;7.95;4.95;;;;;;;-146.25;100.00;52676.41;2087808;28;36097;-66
2024/01/08 01:29:31;;;;;;;10.02;5.07;;;;;;;-146.25;100.00;52690.59;2094870;28;32947;-66
2024/01/08 01:30:33;;;;;;;8.30;5.13;;;;;;;-146.25;100.00;52656.13;2096150;28;37316;-65
2024/01/08 01:31:35;;;;;;;10.02;4.82;;;;;;;-146.25;100.00;52658.16;2096351;28;34907;-65
2024/01/08 01:32:37;;;;;;;7.95;4.10;;;;;;;-146.25;100.00;52648.00;2096256;28;35803;-66
2024/01/08 01:33:40;;;;;;;11.02;5.47;;;;;;;-146.25;100.00;52666.25;2096038;28;37914;-65
2024/01/08 01:34:41;;;;;;;9.70;4.75;;;;;;;-146.25;100.00;52682.47;2092198;28;33403;-66
2024/01/08 01:35:43;;;;;;;8.45;4.47;;;;;;;-146.25;100.00;52672.34;2087770;28;35663;-65
2024/01/08 01:36:47;;;;;;;7.82;4.53;;;;;;;-146.25;100.00;52676.41;2088611;28;20049;-66
2024/01/08 01:37:51;;;;;;;7.93;5.05;;;;;;;-146.25;100.00;52716.97;2088272;28;21315;-65
2024/01/08 01:38:55;;;;;;;11.23;5.30;;;;;;;-146.25;100.00;52656.13;2087871;28;34744;-64
2024/01/08 01:39:57;;;;;;;8.60;4.90;;;;;;;-146.25;100.00;52639.91;2087508;28;33267;-66
2024/01/08 01:42:43;;;;;;;8.60;4.25;;;;;;;-146.25;100.00;52680.47;2317165;23;20011;-67
2024/01/08 01:43:44;;;;;;;7.75;4.43;;;;;;;-146.25;100.00;52696.69;2031377;24;20053;-68
2024/01/08 01:44:48;;;;;;;7.22;4.50;;;;;;;-146.25;100.00;52694.66;2026549;29;20041;-67
2024/01/08 01:45:56;;;;;;;10.73;4.97;;;;;;;-146.25;100.00;52672.34;2038638;29;38629;-67
2024/01/08 01:46:58;;;;;;;8.57;5.13;;;;;;;-146.25;100.00;52627.75;2030583;29;40515;-68
2024/01/08 01:48:00;;;;;;;9.70;4.90;;;;;;;-146.25;100.00;52670.31;2030487;29;40862;-66
2024/01/08 01:49:03;;;;;;;10.90;5.45;;;;;;;-146.25;100.00;52688.56;2031130;29;40170;-66
2024/01/08 01:50:08;;;;;;;11.15;5.28;;;;;;;-146.25;100.00;52680.47;2030362;29;43407;-68
2024/01/08 01:51:10;;;;;;;9.88;5.38;;;;;;;-146.25;100.00;52662.22;2039012;29;40314;-68
2024/01/08 01:52:12;;;;;;;10.65;4.97;;;;;;;-146.25;100.00;52668.28;2030528;29;37589;-67
2024/01/08 01:53:16;;;;;;;9.00;5.20;;;;;;;-146.25;100.00;52656.13;2031300;29;20033;-68
2024/01/08 01:54:22;;;;;;;9.18;5.18;;;;;;;-146.25;100.00;52656.13;2030612;29;37512;-68
2024/01/08 01:55:24;;;;;;;11.95;5.65;;;;;;;-146.25;100.00;52660.19;2030899;29;40476;-68
2024/01/08 01:56:27;;;;;;;8.63;5.22;;;;;;;-146.25;100.00;52652.06;2030704;29;41756;-68
2024/01/08 01:57:29;;;;;;;7.57;4.97;;;;;;;-146.25;100.00;52664.22;2031112;29;38476;-68
2024/01/08 01:58:31;;;;;;;9.75;5.38;;;;;;;-146.25;100.00;52668.28;2038325;29;39633;-66
2024/01/08 01:59:35;;;;;;;8.95;5.18;;;;;;;-146.25;100.00;52676.41;2039294;29;37620;-67
2024/01/08 02:00:38;;;;;;;10.77;5.10;;;;;;;-146.25;100.00;52678.44;2030492;29;39716;-67
2024/01/08 02:01:40;;;;;;;6.55;4.35;;;;;;;-146.25;100.00;52648.00;2031348;29;39690;-66
2024/01/08 02:02:42;;;;;;;9.38;5.22;;;;;;;-146.25;100.00;52698.72;2030280;29;42615;-68
2024/01/08 02:03:45;;;;;;;8.00;4.90;;;;;;;-146.25;100.00;52672.34;2022956;29;40746;-68
2024/01/08 02:04:47;;;;;;;8.05;4.93;;;;;;;-146.25;100.00;52658.16;2022486;29;34574;-67
2024/01/08 02:05:50;;;;;;;10.80;5.05;;;;;;;-146.25;100.00;52645.97;2023400;29;44394;-67
2024/01/08 02:06:53;;;;;;;8.88;5.15;;;;;;;-146.25;100.00;52660.19;2038392;29;39097;-66
2024/01/08 02:07:56;;;;;;;8.10;5.13;;;;;;;-146.25;100.00;52712.91;2030464;29;42843;-67
2024/01/08 02:08:57;;;;;;;6.93;4.68;;;;;;;-146.25;100.00;52680.47;2030495;29;39598;-67
2024/01/08 02:09:59;;;;;;;7.82;4.85;;;;;;;-146.25;100.00;52623.69;2030779;29;41082;-69
2024/01/08 02:11:01;;;;;;;10.35;5.38;;;;;;;-146.25;100.00;52652.06;2033129;29;40854;-66
2024/01/08 02:12:08;;;;;;;8.65;5.00;;;;;;;-146.25;100.00;52652.06;2031400;29;44780;-67
2024/01/08 02:13:09;;;;;;;8.77;4.97;;;;;;;-146.25;100.00;52652.06;2022741;29;38700;-68
2024/01/08 02:14:12;;;;;;;9.27;5.03;;;;;;;-146.25;100.00;52670.31;2022521;29;40752;-66
2024/01/08 02:15:15;;;;;;;10.20;5.15;;;;;;;-146.25;100.00;52684.50;2033469;29;44450;-67
2024/01/08 02:16:20;;;;;;;6.55;4.57;;;;;;;-146.25;100.00;52684.50;2031518;29;37824;-66
2024/01/08 02:17:21;;;;;;;8.63;4.72;;;;;;;-146.25;100.00;52676.41;2022626;29;43150;-68
2024/01/08 02:18:23;;;;;;;8.25;4.50;;;;;;;-146.25;100.00;52668.28;2023789;29;37453;-68
2024/01/08 02:19:25;;;;;;;10.90;5.07;;;;;;;-146.25;100.00;52698.72;2030943;29;40916;-67
2024/01/08 02:20:27;;;;;;;9.23;5.55;;;;;;;-146.25;100.00;52656.13;2031206;29;41064;-67
2024/01/08 02:21:28;;;;;;;8.18;5.25;;;;;;;-146.25;100.00;52692.63;2031114;29;39408;-66
2024/01/08 02:22:30;;;;;;;9.70;5.07;;;;;;;-146.25;100.00;52668.28;2031163;29;33653;-66
2024/01/08 02:23:35;;;;;;;10.25;5.30;;;;;;;-146.25;100.00;52652.06;2031453;29;28369;-66
2024/01/08 02:24:36;;;;;;;12.52;5.13;;;;;;;-146.25;100.00;52672.34;2031551;29;33318;-67
2024/01/08 02:25:40;;;;;;;9.52;5.15;;;;;;;-146.25;100.00;52639.91;2030851;29;26955;-67
2024/01/08 02:26:44;;;;;;;10.30;5.35;;;;;;;-146.25;100.00;52678.44;2023061;29;35773;-68
2024/01/08 02:27:46;;;;;;;9.50;4.93;;;;;;;-146.25;100.00;52652.06;2023403;29;34787;-69
2024/01/08 02:28:48;;;;;;;8.40;4.93;;;;;;;-146.25;100.00;52700.72;2031729;29;33443;-68
2024/01/08 02:29:52;;;;;;;7.88;4.65;;;;;;;-146.25;100.00;52668.28;2031105;29;34469;-68
2024/01/08 02:30:56;;;;;;;8.60;4.80;;;;;;;-146.25;100.00;52676.41;2031326;29;33802;-66
2024/01/08 02:31:57;;;;;;;8.10;4.55;;;;;;;-146.25;100.00;52692.63;2030490;29;32867;-66
2024/01/08 02:32:59;;;;;;;7.50;4.70;;;;;;;-146.25;100.00;52648.00;2031371;29;36611;-67
2024/01/08 02:34:04;;;;;;;7.30;4.57;;;;;;;-146.25;100.00;52637.88;2023278;29;26960;-67
2024/01/08 02:35:06;;;;;;;6.70;4.07;;;;;;;-146.25;100.00;52708.84;2015461;29;36251;-67
2024/01/08 02:36:08;;;;;;;7.97;4.70;;;;;;;-146.25;100.00;52648.00;2022866;29;36689;-66
2024/01/08 02:37:12;;;;;;;8.70;4.80;;;;;;;-146.25;100.00;52660.19;2023316;29;32060;-67
2024/01/08 02:38:14;;;;;;;8.80;4.90;;;;;;;-146.25;100.00;52631.78;2023306;29;32746;-67
2024/01/08 02:39:16;;;;;;;7.65;4.60;;;;;;;-146.25;100.00;52674.38;2031265;29;35251;-67
2024/01/08 02:40:18;;;;;;;8.68;4.70;;;;;;;-146.25;100.00;52645.97;2031292;29;33654;-66
2024/01/08 02:41:19;;;;;;;7.72;4.28;;;;;;;-146.25;100.00;52676.41;2022879;29;34646;-67
2024/01/08 02:42:23;;;;;;;8.07;4.80;;;;;;;-146.25;100.00;52684.50;2022879;29;34439;-69
2024/01/08 02:43:25;;;;;;;7.75;4.70;;;;;;;-146.25;100.00;52637.88;2031632;29;20071;-67
2024/01/08 02:44:27;;;;;;;8.02;4.63;;;;;;;-146.25;100.00;52660.19;2030340;29;36766;-69
2024/01/08 02:45:31;;;;;;;7.82;4.43;;;;;;;-146.25;100.00;52668.28;2031346;29;31690;-66
2024/01/08 02:46:33;;;;;;;8.05;4.50;;;;;;;-146.25;100.00;52672.34;2030857;29;36132;-69
2024/01/08 02:47:37;;;;;;;7.30;4.30;;;;;;;-146.25;100.00;52674.38;2031951;29;34140;-66
2024/01/08 02:48:39;;;;;;;8.65;4.35;;;;;;;-146.25;100.00;52635.84;2029996;29;34570;-68
2024/01/08 02:49:41;;;;;;;8.20;4.38;;;;;;;-146.25;100.00;52684.50;2031344;29;24968;-67
2024/01/08 02:50:46;;;;;;;9.65;4.35;;;;;;;-146.25;100.00;52648.00;2031298;29;20037;-67
2024/01/08 02:51:47;;;;;;;8.18;4.15;;;;;;;-146.25;100.00;52700.72;2031552;29;33663;-68
2024/01/08 02:52:49;;;;;;;9.40;4.32;;;;;;;-146.25;100.00;52639.91;2031198;29;31301;-68
2024/01/08 02:53:51;;;;;;;10.57;4.82;;;;;;;-146.25;100.00;52660.19;2031303;29;35598;-67
2024/01/08 02:54:55;;;;;;;6.85;4.25;;;;;;;-146.25;100.00;52686.53;2031148;29;33817;-68
2024/01/08 02:55:57;;;;;;;6.60;3.50;;;;;;;-146.25;100.00;52648.00;2031947;29;33795;-68
2024/01/08 02:56:59;;;;;;;5.45;3.63;;;;;;;-146.25;100.00;52635.84;2030884;29;35451;-66
2024/01/08 02:58:05;;;;;;;7.65;4.18;;;;;;;-146.25;100.00;52650.03;2031174;29;33855;-68
2024/01/08 02:59:07;;;;;;;8.52;4.22;;;;;;;-146.25;100.00;52664.22;2022647;29;33976;-68
2024/01/08 03:00:09;;;;;;;7.30;3.80;;;;;;;-146.25;100.00;52654.09;2022221;29;38686;-67
2024/01/08 03:01:11;;;;;;;7.28;3.88;;;;;;;-146.25;100.00;52678.44;2030676;29;30313;-68
2024/01/08 03:02:15;;;;;;;6.35;3.97;;;;;;;-146.25;100.00;52686.53;2031355;29;34784;-69
2024/01/08 03:03:17;;;;;;;8.27;3.90;;;;;;;-146.25;100.00;52668.28;2031220;29;32286;-68
2024/01/08 03:04:19;;;;;;;6.25;3.42;;;;;;;-146.25;100.00;52696.69;2031294;29;33410;-68
2024/01/08 03:05:20;;;;;;;5.38;3.38;;;;;;;-146.25;100.00;52702.75;2030802;29;37348;-68
2024/01/08 03:06:22;;;;;;;6.50;3.90;;;;;;;-146.25;100.00;52623.69;2033210;29;20476;-68
2024/01/08 03:07:27;;;;;;;6.32;3.95;;;;;;;-146.25;100.00;52654.09;2032915;29;20909;-66
2024/01/08 03:08:28;;;;;;;7.13;3.80;;;;;;;-146.25;100.00;52688.56;2024361;29;32483;-66
2024/01/08 03:09:30;;;;;;;7.93;3.55;;;;;;;-146.25;100.00;52650.03;2023952;29;31787;-66
2024/01/08 03:10:35;;;;;;;5.93;3.38;;;;;;;-146.25;100.00;52654.09;2032783;29;32856;-67
2024/01/08 03:11:36;;;;;;;7.45;3.60;;;;;;;-146.25;100.00;52682.47;2032546;29;29715;-67
2024/01/08 03:12:38;;;;;;;6.13;3.45;;;;;;;-146.25;100.00;52650.03;2032766;29;33233;-66
2024/01/08 03:13:40;;;;;;;5.25;3.35;;;;;;;-146.25;100.00;52686.53;2031528;29;36379;-66
2024/01/08 03:14:45;;;;;;;6.97;3.80;;;;;;;-146.25;100.00;52684.50;2031832;29;34555;-67
2024/01/08 03:15:47;;;;;;;6.22;3.53;;;;;;;-146.25;100.00;52678.44;2032432;29;34348;-66
2024/01/08 03:16:48;;;;;;;7.18;3.60;;;;;;;-146.25;100.00;52721.00;2032399;29;32856;-66
2024/01/08 03:17:50;;;;;;;6.15;3.67;;;;;;;-146.25;100.00;52672.34;2032607;29;33848;-67
2024/01/08 03:18:52;;;;;;;6.35;3.40;;;;;;;-146.25;100.00;52664.22;2032736;29;37774;-67
2024/01/08 03:19:56;;;;;;;7.18;3.65;;;;;;;-146.25;100.00;52664.22;2032117;29;33789;-66
2024/01/08 03:20:58;;;;;;;5.80;3.53;;;;;;;-146.25;100.00;52658.16;2032551;29;35225;-68
2024/01/08 03:22:02;;;;;;;6.07;3.45;;;;;;;-146.25;100.00;52684.50;2031989;29;34695;-68
2024/01/08 03:23:04;;;;;;;7.07;3.45;;;;;;;-146.25;100.00;52684.50;2032550;29;34743;-67
2024/01/08 03:24:06;;;;;;;7.70;3.55;;;;;;;-146.25;100.00;52637.88;2032227;29;34469;-67
2024/01/08 03:25:09;;;;;;;9.23;3.55;;;;;;;-146.25;100.00;52641.94;2032681;29;33161;-67
2024/01/08 03:26:10;;;;;;;6.65;3.60;;;;;;;-146.25;100.00;52633.81;2032506;29;20936;-66
2024/01/08 03:27:14;;;;;;;8.07;3.63;;;;;;;-146.25;100.00;52666.25;2032705;29;36446;-68
2024/01/08 03:28:16;;;;;;;7.05;3.60;;;;;;;-146.25;100.00;52652.06;2032117;29;33364;-68
2024/01/08 03:29:21;;;;;;;7.10;3.58;;;;;;;-146.25;100.00;52658.16;2024160;29;20053;-68
2024/01/08 03:30:23;;;;;;;6.88;3.70;;;;;;;-146.25;100.00;52676.41;2016722;29;33353;-67
2024/01/08 03:31:26;;;;;;;7.82;3.58;;;;;;;-146.25;100.00;52682.47;2024654;29;32359;-67
2024/01/08 03:32:28;;;;;;;6.50;3.65;;;;;;;-146.25;100.00;52682.47;2031976;29;36391;-69
2024/01/08 03:33:30;;;;;;;7.60;3.28;;;;;;;-146.25;100.00;52658.16;2031980;29;33759;-68
2024/01/08 03:34:32;;;;;;;5.47;3.17;;;;;;;-146.25;100.00;52678.44;2031367;29;34717;-68
2024/01/08 03:35:36;;;;;;;5.25;3.35;;;;;;;-146.25;100.00;52654.09;2031702;29;31169;-68
2024/01/08 03:36:38;;;;;;;5.45;3.72;;;;;;;-146.25;100.00;52712.91;2032132;29;29090;-68
2024/01/08 03:37:42;;;;;;;6.50;3.58;;;;;;;-146.25;100.00;52658.16;2023879;29;36830;-68
2024/01/08 03:38:46;;;;;;;8.30;3.42;;;;;;;-146.25;100.00;52656.13;2023978;29;33210;-69
2024/01/08 03:39:48;;;;;;;7.15;3.97;;;;;;;-146.25;100.00;52678.44;2023749;29;34120;-68
2024/01/08 03:40:49;;;;;;;8.52;3.33;;;;;;;-146.25;100.00;52700.72;2024175;29;30661;-68
2024/01/08 03:41:52;;;;;;;8.35;3.60;;;;;;;-146.25;100.00;52666.25;2032602;29;33514;-69
2024/01/08 03:42:53;;;;;;;9.25;3.70;;;;;;;-146.25;100.00;52637.88;2031971;29;36171;-67
2024/01/08 03:43:55;;;;;;;5.50;3.30;;;;;;;-146.25;100.00;52700.72;2032379;29;31295;-67
2024/01/08 03:44:57;;;;;;;7.38;3.80;;;;;;;-146.25;100.00;52688.56;2023281;29;33351;-66
2024/01/08 03:45:59;;;;;;;9.35;3.42;;;;;;;-146.25;100.00;52696.69;2024441;29;34925;-68
2024/01/08 03:47:00;;;;;;;5.95;3.30;;;;;;;-146.25;100.00;52627.75;2032215;29;33558;-66
2024/01/08 03:48:02;;;;;;;8.13;4.15;;;;;;;-146.25;100.00;52704.78;2032265;29;36403;-67
2024/01/08 03:49:06;;;;;;;7.18;3.72;;;;;;;-146.25;100.00;52688.56;2031938;29;33038;-67
2024/01/08 03:50:08;;;;;;;7.65;4.00;;;;;;;-146.25;100.00;52686.53;2032059;29;35862;-66
2024/01/08 03:51:11;;;;;;;5.85;3.45;;;;;;;-146.25;100.00;52658.16;2032516;29;20048;-66
2024/01/08 03:52:13;;;;;;;6.22;4.05;;;;;;;-146.25;100.00;52698.72;2024117;29;32348;-68
2024/01/08 03:53:15;;;;;;;7.35;3.80;;;;;;;-146.25;100.00;52668.28;2024493;29;20124;-66
2024/01/08 03:54:17;;;;;;;7.32;3.67;;;;;;;-146.25;100.00;52702.75;2031896;29;33314;-68
2024/01/08 03:55:19;;;;;;;7.45;3.88;;;;;;;-146.25;100.00;52656.13;2031954;29;34401;-66
2024/01/08 03:56:21;;;;;;;7.65;3.63;;;;;;;-146.25;100.00;52680.47;2032445;29;32830;-67
2024/01/08 03:57:27;;;;;;;7.20;4.38;;;;;;;-146.25;100.00;52658.16;2031922;29;33637;-66
2024/01/08 03:58:29;;;;;;;7.55;3.70;;;;;;;-146.25;100.00;52656.13;2023869;29;36928;-67
2024/01/08 03:59:30;;;;;;;11.05;4.15;;;;;;;-146.25;100.00;52676.41;2023934;29;33895;-67
2024/01/08 04:00:32;;;;;;;10.10;3.97;;;;;;;-146.25;100.00;52658.16;2031856;29;31089;-68
2024/01/08 04:01:46;;;;;;;7.85;4.20;;;;;;;-146.25;100.00;52652.06;2032129;29;20037;-67
2024/01/08 04:02:48;;;;;;;7.88;4.07;;;;;;;-146.25;100.00;52645.97;2025053;29;20053;-66
2024/01/08 04:03:52;;;;;;;7.35;3.78;;;;;;;-146.25;100.00;52627.75;2024744;29;33626;-67
2024/01/08 04:04:57;;;;;;;6.70;3.88;;;;;;;-146.25;100.00;52678.44;2032420;29;32760;-66
2024/01/08 04:05:58;;;;;;;8.52;4.22;;;;;;;-146.25;100.00;52684.50;2031427;29;28295;-67
2024/01/08 04:07:00;;;;;;;8.27;4.30;;;;;;;-146.25;100.00;52650.03;2031718;29;36924;-67
2024/01/08 04:08:03;;;;;;;7.72;4.07;;;;;;;-146.25;100.00;52660.19;2032937;29;20068;-67
2024/01/08 04:09:04;;;;;;;10.20;4.35;;;;;;;-146.25;100.00;52656.13;2032780;29;20052;-67
2024/01/08 04:10:07;;;;;;;7.82;3.95;;;;;;;-146.25;100.00;52662.22;2032065;29;36277;-69
2024/01/08 04:11:09;;;;;;;6.63;3.25;;;;;;;-146.25;100.00;52672.34;2023765;29;33764;-69
2024/01/08 04:12:12;;;;;;;5.28;3.30;;;;;;;-146.25;100.00;52635.84;2023944;29;32425;-67
2024/01/08 04:13:13;;;;;;;5.78;3.65;;;;;;;-146.25;100.00;52668.28;2032136;29;33831;-67
2024/01/08 04:14:15;;;;;;;7.53;3.90;;;;;;;-146.25;100.00;52700.72;2031990;29;34157;-66
2024/01/08 04:15:17;;;;;;;7.93;4.00;;;;;;;-146.25;100.00;52662.22;2032117;29;32074;-67
2024/01/08 04:16:19;;;;;;;6.25;3.50;;;;;;;-146.25;100.00;52662.22;2031819;29;36628;-67
2024/01/08 04:17:26;;;;;;;8.27;4.05;;;;;;;-146.25;100.00;52696.69;2032071;29;35148;-68
2024/01/08 04:18:28;;;;;;;7.07;3.78;;;;;;;-146.25;100.00;52658.16;2032269;29;31808;-68
2024/01/08 04:19:29;;;;;;;6.70;3.70;;;;;;;-146.25;100.00;52716.97;2032132;29;33695;-68
2024/01/08 04:20:31;;;;;;;8.02;3.75;;;;;;;-146.25;100.00;52682.47;2031781;29;32927;-67
2024/01/08 04:21:33;;;;;;;7.13;3.70;;;;;;;-146.25;100.00;52682.47;2032116;29;37611;-66
2024/01/08 04:22:35;;;;;;;7.72;3.60;;;;;;;-146.25;100.00;52658.16;2031891;29;38101;-68
2024/01/08 04:23:36;;;;;;;8.80;3.83;;;;;;;-146.25;100.00;52674.38;2031438;29;29290;-66
2024/01/08 04:24:38;;;;;;;8.05;3.95;;;;;;;-146.25;100.00;52674.38;2032318;29;35523;-68
2024/01/08 04:25:40;;;;;;;6.05;3.60;;;;;;;-146.25;100.00;52694.66;2023208;29;37841;-68
2024/01/08 04:26:42;;;;;;;5.68;3.10;;;;;;;-146.25;100.00;52664.22;2024668;29;20869;-69
2024/01/08 04:27:44;;;;;;;6.10;3.78;;;;;;;-146.25;100.00;52682.47;2032514;29;28129;-68
2024/01/08 04:28:47;;;;;;;5.22;3.55;;;;;;;-146.25;100.00;52670.31;2031947;29;35803;-68
2024/01/08 04:29:49;;;;;;;5.65;3.00;;;;;;;-146.25;100.00;52704.78;2031257;29;33649;-67
2024/01/08 04:30:51;;;;;;;9.80;3.95;;;;;;;-146.25;100.00;52668.28;2023178;29;38231;-67
2024/01/08 04:31:53;;;;;;;5.40;3.38;;;;;;;-146.25;100.00;52658.16;2024005;29;33599;-68
2024/01/08 04:32:55;;;;;;;5.97;3.50;;;;;;;-146.25;100.00;52700.72;2023127;29;37345;-67
2024/01/08 04:33:57;;;;;;;6.32;3.63;;;;;;;-146.25;100.00;52678.44;2023653;29;35009;-68
2024/01/08 04:35:03;;;;;;;5.85;3.83;;;;;;;-146.25;100.00;52652.06;2031847;29;35841;-68
2024/01/08 04:36:05;;;;;;;5.47;3.55;;;;;;;-146.25;100.00;52686.53;2031970;29;38394;-68
2024/01/08 04:37:07;;;;;;;6.82;3.60;;;;;;;-146.25;100.00;52737.22;2032329;29;20061;-68
2024/01/08 04:38:08;;;;;;;5.60;3.13;;;;;;;-146.25;100.00;52692.63;2032118;29;36429;-68
2024/01/08 04:39:11;;;;;;;6.13;3.53;;;;;;;-146.25;100.00;52668.28;2032535;29;20099;-68
2024/01/08 04:40:13;;;;;;;7.30;3.80;;;;;;;-146.25;100.00;52698.72;2032276;29;32878;-68
2024/01/08 04:41:20;;;;;;;7.38;3.45;;;;;;;-146.25;100.00;52696.69;2031591;29;20143;-68
2024/01/08 04:42:23;;;;;;;7.38;3.67;;;;;;;-146.25;100.00;52690.59;2024482;29;20049;-67
2024/01/08 04:43:24;;;;;;;5.10;3.08;;;;;;;-146.25;100.00;52650.03;2023408;29;34700;-68
2024/01/08 04:44:27;;;;;;;6.97;3.38;;;;;;;-146.25;100.00;52643.97;2032082;29;33411;-68
2024/01/08 04:45:30;;;;;;;6.60;3.40;;;;;;;-146.25;100.00;52668.28;2031815;29;29655;-68